Capitol Logistics 2605

Operating for CKS



KCVG
Cincinnati/Northern Kentucky International Airport
Covington, Kentucky
KSFO
San Francisco International Airport
San Francisco, California

Activity Log

Date Flight Route Aircraft Duration
No Flights Yet

Route Details

Aircraft Information
Primary: Boeing 767-300BDSF
Backup: Boeing 757-200SF
Route Data
Distance: 2033nm
Duration: 4h 46m
Recm'd Route: LOVEY6 AXC PWE ZIRKL Q136 OAL INYOE DYAMD5
Origin Wx: KCVG 180252Z 24003KT 10SM CLR 08/05 A2993 RMK AO2 SLP134 T00780050 51011
Dest. Wx: KSFO 180256Z 30015KT 10SM FEW003 13/07 A3001 RMK AO2 SLP163 T01330072 53000
Notes: